Portada
METAR-TAF:

METAR-TAF

Aeropuertos :

Aeropuerto de Reikiavik

Reikiavik, Islandia

latitud: 64-08N, longitud: 021-54W, altitud: 54 m

Observación

El informe se hizo hace 18 minutos, a las 11:00 UTC
Viento 5 kt con dirección variable
Temperatura 3°C
Humedad 44%
Presión 1016 hPa
Visibilidad 10 km o más
Escasas nubes a una altura de 3200 ft

METAR: BIRK 081100Z VRB05KT 9999 FEW032 03/M08 Q1016

Hora: 11:18 (11:18 UTC)

Pronóstico

El informe se hizo hace 3 horas y 45 minutos, a las 07:33 UTC
Pronóstico válido del 08 a las 09 UTC al 09 a las 09 UTC
Viento 7 kt del este
Visibilidad 10 km o más
Escasas nubes a una altura de 4000 ft

TAF: BIRK 080733Z 0809/0909 09007KT 9999 FEW040 TX07/0815Z TNM01/0905Z

Observaciones y pronósticos meteorológicos de más de 4000 aeropuertos (mensajes METAR y TAF).

Los puntos amarillos y rojos representan las estaciones disponibles.

Ponga el ratón en el punto deseado para ver el nombre de la estación.

Haga clic para ver las observaciones y los pronósticos meteorológicos.

Para cambiar el mapa : haga clic en los botones verdes con una cruz de color negro para hacer un zoom, en el botón verde con un guión para alejar o en las flechas verdes para mapas adyacentes.


METAR-TAF: